createdAt,value
2022-11-24T00:01:45.441Z,99917.34
2022-11-24T00:06:47.322Z,99917.47
2022-11-24T00:11:50.314Z,99908.72
2022-11-24T00:16:52.201Z,99910.03
2022-11-24T00:21:54.025Z,99907.47
2022-11-24T00:26:55.826Z,99911.81
2022-11-24T00:31:57.986Z,99932.38
2022-11-24T00:36:59.805Z,99939.09
2022-11-24T00:42:02.154Z,99944.06
2022-11-24T00:47:04.076Z,99954.84
2022-11-24T00:52:06.000Z,99957.78
2022-11-24T00:57:07.867Z,99945.97
2022-11-24T01:02:09.818Z,99952.03
2022-11-24T01:07:11.785Z,99957.13
2022-11-24T01:12:13.619Z,99960.97
2022-11-24T01:17:15.401Z,99962.66
2022-11-24T01:22:17.208Z,99977.78
2022-11-24T01:27:18.973Z,99966.81
2022-11-24T01:32:20.802Z,99987.16
2022-11-24T01:37:22.608Z,99983.56
2022-11-24T01:42:24.663Z,99996.09
2022-11-24T01:47:40.872Z,100015.75
2022-11-24T01:53:00.978Z,100011.63
2022-11-24T01:58:11.577Z,100020.00
2022-11-24T02:03:17.876Z,100018.78
2022-11-24T02:08:43.920Z,100024.09
2022-11-24T02:13:48.790Z,100022.56
2022-11-24T02:18:51.281Z,100028.06
2022-11-24T02:24:22.083Z,100040.75
2022-11-24T02:29:24.075Z,100051.06
2022-11-24T02:34:26.860Z,100062.84
2022-11-24T02:39:28.734Z,100065.09
2022-11-24T02:44:36.530Z,100068.22
2022-11-24T02:49:38.774Z,100059.44
2022-11-24T02:54:53.673Z,100060.66
2022-11-24T02:59:55.627Z,100064.41
2022-11-24T03:04:58.605Z,100065.31
2022-11-24T03:10:00.747Z,100069.91
2022-11-24T03:15:06.902Z,100067.00
2022-11-24T03:20:09.789Z,100070.41
2022-11-24T03:25:13.721Z,100083.44
2022-11-24T03:30:16.932Z,100100.91
2022-11-24T03:35:18.808Z,100114.91
2022-11-24T03:40:20.654Z,100128.09
2022-11-24T03:45:44.883Z,100118.84
2022-11-24T03:50:52.305Z,100127.50
2022-11-24T03:55:54.949Z,100141.72
2022-11-24T04:00:57.964Z,100139.09
2022-11-24T04:05:59.842Z,100148.16
2022-11-24T04:11:03.256Z,100154.00
2022-11-24T04:16:08.996Z,100162.69
2022-11-24T04:21:10.733Z,100178.13
2022-11-24T04:26:12.911Z,100181.88
2022-11-24T04:31:14.763Z,100193.03
2022-11-24T04:36:16.541Z,100206.91
2022-11-24T04:41:18.321Z,100209.47
2022-11-24T04:46:20.124Z,100202.66
2022-11-24T04:51:21.870Z,100216.53
2022-11-24T04:56:23.645Z,100209.31
2022-11-24T05:01:25.372Z,100218.94
2022-11-24T05:06:27.115Z,100220.78
2022-11-24T05:11:28.850Z,100227.66
2022-11-24T05:16:30.586Z,100229.38
2022-11-24T05:21:32.262Z,100251.09
2022-11-24T05:26:35.530Z,100260.34
2022-11-24T05:31:37.362Z,100271.53
2022-11-24T05:36:54.447Z,100277.34
2022-11-24T05:41:56.179Z,100289.69
2022-11-24T05:46:57.974Z,100303.38
2022-11-24T05:52:02.825Z,100312.78
2022-11-24T05:57:05.069Z,100319.44
2022-11-24T06:02:10.277Z,100328.03
2022-11-24T06:07:12.666Z,100332.31
2022-11-24T06:12:14.563Z,100337.59
2022-11-24T06:17:16.228Z,100342.94
2022-11-24T06:22:19.404Z,100361.78
2022-11-24T06:27:28.180Z,100365.56
2022-11-24T06:32:29.801Z,100364.38
2022-11-24T06:37:36.507Z,100379.44
2022-11-24T06:42:38.395Z,100391.75
2022-11-24T06:47:46.158Z,100404.44
2022-11-24T06:52:47.872Z,100420.34
2022-11-24T06:57:49.548Z,100424.28
2022-11-24T07:02:51.349Z,100432.81
2022-11-24T07:07:53.833Z,100444.44
2022-11-24T07:12:55.566Z,100457.13
2022-11-24T07:17:57.575Z,100472.34
2022-11-24T07:22:59.645Z,100470.28
2022-11-24T07:28:01.830Z,100484.13
2022-11-24T07:33:03.847Z,100506.03
2022-11-24T07:38:05.512Z,100513.22
2022-11-24T07:43:07.109Z,100515.75
2022-11-24T07:48:10.266Z,100510.97
2022-11-24T07:53:11.916Z,100521.75
2022-11-24T07:58:13.511Z,100534.25
2022-11-24T08:03:15.354Z,100543.13
2022-11-24T08:08:17.057Z,100560.25
2022-11-24T08:13:19.911Z,100560.78
2022-11-24T08:18:24.391Z,100566.09
2022-11-24T08:23:26.335Z,100569.84
2022-11-24T08:28:27.934Z,100580.81
2022-11-24T08:33:29.732Z,100584.75
2022-11-24T10:55:17.590Z,100730.66
2022-11-24T11:00:19.256Z,100750.00
2022-11-24T11:05:26.313Z,100748.97
2022-11-24T11:10:28.276Z,100749.66
2022-11-24T11:15:31.532Z,100740.91
2022-11-24T11:20:35.157Z,100742.03
2022-11-24T11:25:41.151Z,100742.91
2022-11-24T11:31:21.003Z,100741.69
2022-11-24T11:36:24.558Z,100744.09
2022-11-24T11:41:33.863Z,100744.44
2022-11-24T11:46:36.047Z,100746.13
2022-11-24T11:52:25.973Z,100748.00
2022-11-24T11:57:42.931Z,100743.69
2022-11-24T12:02:54.487Z,100757.78
2022-11-24T12:08:21.090Z,100774.28
2022-11-24T12:13:57.397Z,100774.28
2022-11-24T12:19:24.519Z,100781.50
2022-11-24T12:24:44.380Z,100779.44
2022-11-24T12:29:48.774Z,100789.75
2022-11-24T12:35:06.156Z,100783.59
2022-11-24T12:40:23.763Z,100778.94
2022-11-24T12:45:39.443Z,100785.78
2022-11-24T12:50:43.986Z,100787.69
2022-11-24T12:55:46.774Z,100796.44
2022-11-24T13:01:16.170Z,100780.63
2022-11-24T13:06:44.369Z,100780.28
2022-11-24T13:11:51.628Z,100789.03
2022-11-24T13:17:21.805Z,100795.72
2022-11-24T13:22:24.370Z,100795.91
2022-11-24T13:27:28.228Z,100787.50
2022-11-24T13:32:46.284Z,100791.09
2022-11-24T13:37:51.809Z,100787.31
2022-11-24T13:42:57.670Z,100793.84
2022-11-24T13:47:59.935Z,100793.00
2022-11-24T13:53:12.985Z,100789.00
2022-11-24T13:58:14.615Z,100783.50
2022-11-24T14:03:24.027Z,100786.31
2022-11-24T14:08:29.065Z,100777.38
2022-11-24T14:13:34.473Z,100780.84
2022-11-24T14:18:39.491Z,100772.44
2022-11-24T14:23:45.194Z,100765.59
2022-11-24T14:28:48.992Z,100768.34
2022-11-24T14:34:07.041Z,100761.28
2022-11-24T14:39:14.567Z,100761.66
2022-11-24T14:44:28.995Z,100752.06
2022-11-24T14:49:33.114Z,100744.31
2022-11-24T14:54:37.695Z,100758.22
2022-11-24T14:59:41.710Z,100771.44
2022-11-24T15:05:04.372Z,100767.34
2022-11-24T15:10:19.309Z,100768.91
2022-11-24T15:15:29.383Z,100773.03
2022-11-24T15:20:44.520Z,100769.94
2022-11-24T15:25:47.574Z,100760.69
2022-11-24T15:30:49.154Z,100760.53
2022-11-24T15:35:50.991Z,100751.09
2022-11-24T15:40:55.405Z,100754.72
2022-11-24T15:46:00.510Z,100755.22
2022-11-24T15:51:04.636Z,100753.50
2022-11-24T15:56:10.891Z,100762.09
2022-11-24T16:01:12.702Z,100765.38
2022-11-24T16:06:24.124Z,100766.91
2022-11-24T16:11:27.283Z,100766.91
2022-11-24T16:16:28.983Z,100767.59
2022-11-24T16:21:30.579Z,100776.00
2022-11-24T16:26:32.739Z,100765.88
2022-11-24T16:31:35.078Z,100767.94
2022-11-24T16:36:36.760Z,100767.25
2022-11-24T16:41:38.494Z,100771.03
2022-11-24T16:46:40.240Z,100767.41
2022-11-24T16:51:42.557Z,100761.22
2022-11-24T16:56:44.159Z,100761.44
2022-11-24T17:01:51.054Z,100771.34
2022-11-24T17:06:53.715Z,100769.66
2022-11-24T17:11:55.482Z,100764.13
2022-11-24T17:16:57.187Z,100753.00
2022-11-24T17:22:02.368Z,100748.72
2022-11-24T17:27:04.171Z,100745.28
2022-11-24T17:32:10.665Z,100738.44
2022-11-24T17:37:19.964Z,100729.16
2022-11-24T17:42:23.937Z,100738.06
2022-11-24T17:47:27.475Z,100731.41
2022-11-24T17:52:30.170Z,100745.63
2022-11-24T17:57:32.410Z,100749.41
2022-11-24T18:02:34.170Z,100741.00
2022-11-24T18:07:36.703Z,100735.31
2022-11-24T18:12:38.448Z,100728.13
2022-11-24T18:17:41.656Z,100723.88
2022-11-24T18:23:04.488Z,100731.19
2022-11-24T18:28:05.139Z,100739.59
2022-11-24T18:33:07.073Z,100730.16
2022-11-24T18:38:09.298Z,100722.09
2022-11-24T18:43:11.150Z,100720.38
2022-11-24T18:48:14.642Z,100715.78
2022-11-24T18:53:16.279Z,100712.84
2022-11-24T18:58:17.925Z,100716.44
2022-11-24T19:03:19.637Z,100709.91
2022-11-24T19:08:22.673Z,100702.56
2022-11-24T19:13:24.711Z,100699.81
2022-11-24T19:18:33.190Z,100699.13
2022-11-24T19:23:35.043Z,100696.22
2022-11-24T19:29:29.907Z,100693.47
2022-11-24T19:34:31.458Z,100687.16
2022-11-24T19:39:36.994Z,100702.06
2022-11-24T19:44:38.974Z,100700.31
2022-11-24T19:49:40.610Z,100691.78
2022-11-24T19:54:42.330Z,100697.91
2022-11-24T21:28:05.114Z,100688.91
2022-11-24T21:33:07.112Z,100688.72
2022-11-24T21:38:09.057Z,100683.41
2022-11-24T21:43:10.969Z,100688.91
2022-11-24T21:48:12.720Z,100680.50
2022-11-24T21:53:14.321Z,100678.44
2022-11-24T21:58:16.016Z,100678.63
2022-11-24T22:03:23.556Z,100671.25
2022-11-24T22:08:27.224Z,100683.59
2022-11-24T22:13:28.926Z,100673.31
2022-11-24T22:18:36.343Z,100667.31
2022-11-24T22:23:37.960Z,100675.38
2022-11-24T22:28:39.801Z,100670.19
2022-11-24T22:33:41.888Z,100672.63
2022-11-24T22:38:43.591Z,100661.31
2022-11-24T22:43:47.455Z,100678.63
2022-11-24T22:48:52.958Z,100668.16
2022-11-24T22:53:58.304Z,100675.53
2022-11-24T22:59:13.646Z,100664.41
2022-11-24T23:04:16.061Z,100662.34
2022-11-24T23:09:17.765Z,100665.75
2022-11-24T23:14:19.370Z,100670.41
2022-11-24T23:19:20.957Z,100668.66
2022-11-24T23:24:22.577Z,100659.91
2022-11-24T23:29:24.253Z,100658.91
2022-11-24T23:34:25.924Z,100661.13
2022-11-24T23:39:27.594Z,100653.75
2022-11-24T23:44:29.234Z,100660.28
2022-11-24T23:49:30.954Z,100666.44
2022-11-24T23:54:32.794Z,100665.25
2022-11-24T23:59:34.710Z,100670.19
